createdAt,value
2018-02-22T00:00:48.068Z,-3.70
2018-02-22T00:03:15.685Z,-3.60
2018-02-22T00:05:43.410Z,-3.70
2018-02-22T00:08:11.028Z,-3.80
2018-02-22T00:10:39.468Z,-3.80
2018-02-22T00:13:07.026Z,-3.70
2018-02-22T00:15:34.545Z,-3.80
2018-02-22T00:18:02.070Z,-3.80
2018-02-22T00:20:29.641Z,-3.80
2018-02-22T00:22:58.053Z,-4.00
2018-02-22T00:25:25.640Z,-4.10
2018-02-22T00:27:53.407Z,-4.00
2018-02-22T00:30:21.339Z,-4.10
2018-02-22T00:32:48.925Z,-4.10
2018-02-22T00:35:17.336Z,-4.10
2018-02-22T00:37:44.914Z,-4.10
2018-02-22T00:40:12.457Z,-4.00
2018-02-22T00:42:40.800Z,-4.20
2018-02-22T00:45:08.433Z,-4.20
2018-02-22T00:47:36.045Z,-4.20
2018-02-22T00:50:03.677Z,-4.30
2018-02-22T00:52:32.009Z,-4.30
2018-02-22T00:54:59.537Z,-4.30
2018-02-22T00:57:27.082Z,-4.40
2018-02-22T00:59:54.654Z,-4.20
2018-02-22T01:02:22.255Z,-4.00
2018-02-22T01:04:50.602Z,-4.10
2018-02-22T01:07:18.166Z,-4.10
2018-02-22T01:09:45.713Z,-3.90
2018-02-22T01:12:13.249Z,-4.00
2018-02-22T01:14:41.560Z,-3.60
2018-02-22T01:17:09.238Z,-3.60
2018-02-22T01:19:36.777Z,-3.60
2018-02-22T01:22:04.439Z,-3.50
2018-02-22T01:24:32.012Z,-3.60
2018-02-22T01:26:59.557Z,-3.50
2018-02-22T01:29:27.216Z,-3.50
2018-02-22T01:31:54.891Z,-3.40
2018-02-22T01:34:22.445Z,-3.50
2018-02-22T01:36:50.008Z,-3.60
2018-02-22T01:39:18.303Z,-3.70
2018-02-22T01:41:45.917Z,-3.70
2018-02-22T01:44:13.542Z,-3.80
2018-02-22T01:46:41.872Z,-3.70
2018-02-22T01:49:09.511Z,-3.80
2018-02-22T01:51:37.874Z,-3.80
2018-02-22T01:54:05.416Z,-3.80
2018-02-22T01:56:33.042Z,-3.80
2018-02-22T01:59:01.416Z,-3.70
2018-02-22T02:01:28.986Z,-3.80
2018-02-22T02:03:56.550Z,-3.60
2018-02-22T02:06:24.100Z,-3.60
2018-02-22T02:08:51.656Z,-3.50
2018-02-22T02:11:19.212Z,-3.50
2018-02-22T02:13:46.772Z,-3.60
2018-02-22T02:16:14.317Z,-3.80
2018-02-22T02:18:41.890Z,-3.90
2018-02-22T02:21:10.276Z,-3.90
2018-02-22T02:23:37.824Z,-4.00
2018-02-22T02:26:05.374Z,-4.00
2018-02-22T02:28:32.928Z,-4.20
2018-02-22T02:31:00.499Z,-4.30
2018-02-22T02:33:28.790Z,-4.50
2018-02-22T02:35:56.365Z,-4.60
2018-02-22T02:38:23.922Z,-4.60
2018-02-22T02:40:52.260Z,-4.60
2018-02-22T02:43:19.803Z,-4.70
2018-02-22T02:45:47.514Z,-4.80
2018-02-22T02:48:15.144Z,-4.80
2018-02-22T02:50:43.049Z,-4.80
2018-02-22T02:53:10.607Z,-4.70
2018-02-22T02:55:38.146Z,-4.60
2018-02-22T02:58:05.714Z,-4.70
2018-02-22T03:00:33.291Z,-4.70
2018-02-22T03:03:01.844Z,-4.80
2018-02-22T03:05:29.411Z,-4.80
2018-02-22T03:07:57.009Z,-4.80
2018-02-22T03:10:24.557Z,-4.70
2018-02-22T03:12:52.176Z,-4.70
2018-02-22T03:15:19.690Z,-4.70
2018-02-22T03:17:47.280Z,-4.80
2018-02-22T03:20:14.831Z,-4.70
2018-02-22T03:22:42.413Z,-4.80
2018-02-22T03:25:09.988Z,-4.80
2018-02-22T03:27:37.650Z,-4.80
2018-02-22T03:30:05.220Z,-4.90
2018-02-22T03:32:32.787Z,-4.90
2018-02-22T03:35:00.393Z,-4.90
2018-02-22T03:37:27.996Z,-5.00
2018-02-22T03:39:56.328Z,-5.00
2018-02-22T03:42:23.937Z,-5.10
2018-02-22T03:44:51.475Z,-5.00
2018-02-22T03:47:19.070Z,-4.90
2018-02-22T03:49:46.669Z,-4.90
2018-02-22T03:52:14.255Z,-4.90
2018-02-22T03:54:41.793Z,-4.90
2018-02-22T03:57:09.339Z,-4.70
2018-02-22T03:59:36.874Z,-4.60
2018-02-22T04:02:04.467Z,-4.50
2018-02-22T04:04:32.095Z,-4.40
2018-02-22T04:06:59.679Z,-4.40
2018-02-22T04:09:28.035Z,-4.30
2018-02-22T04:11:55.625Z,-4.30
2018-02-22T04:14:23.164Z,-4.30
2018-02-22T04:16:50.716Z,-4.10
2018-02-22T04:19:19.074Z,-4.10
2018-02-22T04:21:46.791Z,-4.20
2018-02-22T04:24:14.352Z,-4.00
2018-02-22T04:26:42.700Z,-4.10
2018-02-22T04:29:10.319Z,-4.10
2018-02-22T04:31:37.926Z,-4.20
2018-02-22T04:34:05.451Z,-4.20
2018-02-22T04:36:33.777Z,-4.40
2018-02-22T04:39:01.336Z,-4.40
2018-02-22T04:41:28.948Z,-4.30
2018-02-22T04:43:56.499Z,-4.30
2018-02-22T04:46:24.029Z,-4.20
2018-02-22T04:48:52.312Z,-4.20
2018-02-22T04:51:20.718Z,-4.20
2018-02-22T04:53:49.068Z,-4.30
2018-02-22T04:56:16.634Z,-4.30
2018-02-22T04:58:45.193Z,-4.20
2018-02-22T05:01:13.997Z,-4.20
2018-02-22T05:03:41.594Z,-4.10
2018-02-22T05:06:09.151Z,-4.10
2018-02-22T05:08:36.687Z,-4.20
2018-02-22T05:11:05.441Z,-4.30
2018-02-22T05:13:33.018Z,-4.40
2018-02-22T05:16:00.569Z,-4.30
2018-02-22T05:18:28.153Z,-4.30
2018-02-22T05:20:55.790Z,-4.50
2018-02-22T05:23:23.562Z,-4.50
2018-02-22T05:25:51.890Z,-4.40
2018-02-22T05:28:19.439Z,-4.40
2018-02-22T05:30:47.018Z,-4.40
2018-02-22T05:33:14.658Z,-4.50
2018-02-22T05:35:42.207Z,-4.40
2018-02-22T05:38:09.811Z,-4.50
2018-02-22T05:40:38.696Z,-4.40
2018-02-22T05:43:06.269Z,-4.40
2018-02-22T05:45:34.586Z,-4.20
2018-02-22T05:48:02.110Z,-4.20
2018-02-22T05:50:29.742Z,-4.20
2018-02-22T05:52:57.345Z,-4.30
2018-02-22T05:55:24.931Z,-4.30
2018-02-22T05:57:52.554Z,-4.20
2018-02-22T06:00:20.068Z,-4.20
2018-02-22T06:02:47.623Z,-4.10
2018-02-22T06:05:15.165Z,-4.20
2018-02-22T06:07:42.729Z,-4.30
2018-02-22T06:10:11.104Z,-4.20
2018-02-22T06:12:39.562Z,-4.10
2018-02-22T06:15:07.109Z,-4.10
2018-02-22T06:17:34.790Z,-4.10
2018-02-22T06:20:02.376Z,-4.20
2018-02-22T06:22:29.981Z,-4.20
2018-02-22T06:24:57.518Z,-4.20
2018-02-22T06:27:25.092Z,-4.10
2018-02-22T06:29:52.701Z,-4.10
2018-02-22T06:32:20.275Z,-4.10
2018-02-22T06:34:48.574Z,-4.00
2018-02-22T06:37:16.895Z,-3.80
2018-02-22T06:39:44.557Z,-3.90
2018-02-22T06:42:12.132Z,-3.80
2018-02-22T06:44:39.785Z,-3.70
2018-02-22T06:47:08.093Z,-3.70
2018-02-22T06:49:35.763Z,-3.70
2018-02-22T06:52:03.373Z,-3.70
2018-02-22T06:54:30.932Z,-3.60
2018-02-22T06:56:58.669Z,-3.50
2018-02-22T06:59:27.014Z,-3.40
2018-02-22T07:01:54.574Z,-3.50
2018-02-22T07:04:22.176Z,-3.40
2018-02-22T07:06:49.744Z,-3.40
2018-02-22T07:09:17.373Z,-3.40
2018-02-22T07:11:44.951Z,-3.30
2018-02-22T07:14:12.542Z,-3.20
2018-02-22T07:16:40.068Z,-3.00
2018-02-22T07:19:08.424Z,-3.10
2018-02-22T07:21:35.991Z,-3.10
2018-02-22T07:24:03.675Z,-3.10
2018-02-22T07:26:31.220Z,-3.20
2018-02-22T07:28:58.829Z,-3.10
2018-02-22T07:31:26.376Z,-3.10
2018-02-22T07:33:53.943Z,-3.00
2018-02-22T07:36:21.470Z,-3.00
2018-02-22T07:38:49.046Z,-3.10
2018-02-22T07:41:16.644Z,-3.00
2018-02-22T07:43:44.214Z,-2.90
2018-02-22T07:46:11.776Z,-2.60
2018-02-22T07:48:39.337Z,-2.60
2018-02-22T07:51:07.650Z,-2.10
2018-02-22T07:53:35.234Z,-2.20
2018-02-22T07:56:02.763Z,-2.10
2018-02-22T07:58:31.085Z,-2.20
2018-02-22T08:00:58.605Z,-2.20
2018-02-22T08:03:26.189Z,-2.30
2018-02-22T08:05:54.563Z,-2.20
2018-02-22T08:08:22.106Z,-2.20
2018-02-22T08:10:49.656Z,-2.30
2018-02-22T08:13:17.192Z,-2.50
2018-02-22T08:15:45.519Z,-2.40
2018-02-22T08:18:13.042Z,-2.50
2018-02-22T08:20:40.622Z,-2.40
2018-02-22T08:23:08.260Z,-2.40
2018-02-22T08:25:35.822Z,-2.40
2018-02-22T08:28:03.360Z,-2.30
2018-02-22T08:30:31.765Z,-2.10
2018-02-22T08:32:59.310Z,-2.20
2018-02-22T08:35:27.616Z,-2.10
2018-02-22T08:37:55.926Z,-2.00
2018-02-22T08:40:23.462Z,-2.10
2018-02-22T08:42:51.772Z,-1.40
2018-02-22T08:45:19.357Z,-1.50
2018-02-22T08:47:46.894Z,-1.40
2018-02-22T08:50:15.282Z,-1.70
2018-02-22T08:52:42.825Z,-1.80
2018-02-22T08:55:10.368Z,-1.70
2018-02-22T08:57:37.887Z,-1.70
2018-02-22T09:00:05.446Z,-1.70
2018-02-22T09:02:33.144Z,-1.70
2018-02-22T09:05:01.486Z,-1.50
2018-02-22T09:07:29.021Z,-1.50
2018-02-22T09:09:57.382Z,-1.10
2018-02-22T09:12:24.912Z,-1.20
2018-02-22T09:14:52.518Z,-1.20
2018-02-22T09:17:20.048Z,-1.60
2018-02-22T09:19:47.601Z,-1.70
2018-02-22T09:22:15.930Z,-1.80
2018-02-22T09:24:43.504Z,-1.80
2018-02-22T09:27:11.095Z,-1.80
2018-02-22T09:29:38.702Z,-1.80
2018-02-22T09:32:07.030Z,-1.70
2018-02-22T09:34:34.551Z,-1.70
2018-02-22T09:37:02.146Z,-1.70
2018-02-22T09:39:29.849Z,-1.60
2018-02-22T09:41:57.521Z,-1.60
2018-02-22T09:44:25.097Z,-1.40
2018-02-22T09:46:52.698Z,-1.30
2018-02-22T09:49:20.244Z,-1.20
2018-02-22T09:51:47.850Z,-1.30
2018-02-22T09:54:15.421Z,-1.00
2018-02-22T09:56:42.969Z,-0.90
2018-02-22T09:59:10.560Z,-0.80
2018-02-22T10:01:38.135Z,-0.90
2018-02-22T10:04:05.935Z,-1.20
2018-02-22T10:06:34.344Z,-1.00
2018-02-22T10:09:02.622Z,-0.90
2018-02-22T10:11:30.902Z,-0.70
2018-02-22T10:13:59.211Z,-0.70
2018-02-22T10:16:27.511Z,-0.70
2018-02-22T10:18:55.155Z,-0.70
2018-02-22T10:21:22.709Z,-0.80
2018-02-22T10:23:50.268Z,-0.80
2018-02-22T10:26:17.858Z,-0.60
2018-02-22T10:28:45.414Z,-0.80
2018-02-22T10:31:12.934Z,-0.80
2018-02-22T10:33:40.529Z,-0.40
2018-02-22T10:36:08.163Z,-0.70
2018-02-22T10:38:36.500Z,-0.80
2018-02-22T10:41:04.034Z,-0.80
2018-02-22T10:43:32.331Z,-0.70
2018-02-22T10:46:00.905Z,-0.70
2018-02-22T10:48:29.222Z,-0.90
2018-02-22T10:50:56.807Z,-0.90
2018-02-22T10:53:24.353Z,-0.80
2018-02-22T10:55:52.696Z,-0.60
2018-02-22T10:58:20.218Z,-0.70
2018-02-22T11:00:54.269Z,-0.60
2018-02-22T11:03:21.818Z,-0.60
2018-02-22T11:05:50.116Z,-0.50
2018-02-22T11:08:17.689Z,-0.50
2018-02-22T11:10:45.297Z,-0.50
2018-02-22T11:13:12.852Z,-0.20
2018-02-22T11:15:40.475Z,-0.30
2018-02-22T11:18:08.788Z,-0.20
2018-02-22T11:20:37.137Z,0.00
2018-02-22T11:23:04.780Z,0.00
2018-02-22T11:25:32.263Z,0.30
2018-02-22T11:27:59.804Z,-0.20
2018-02-22T11:30:27.344Z,0.00
2018-02-22T11:32:54.850Z,0.20
2018-02-22T11:35:22.365Z,0.40
2018-02-22T11:37:49.932Z,0.30
2018-02-22T11:40:17.484Z,0.40
2018-02-22T11:42:45.037Z,0.70
2018-02-22T11:45:12.578Z,1.20
2018-02-22T11:47:40.914Z,1.50
2018-02-22T11:50:08.432Z,1.50
2018-02-22T11:52:36.795Z,1.30
2018-02-22T11:55:04.361Z,1.20
2018-02-22T11:57:31.892Z,1.30
2018-02-22T11:59:59.576Z,1.30
2018-02-22T12:02:27.099Z,1.50
2018-02-22T12:04:55.699Z,1.70
2018-02-22T12:07:23.225Z,1.70
2018-02-22T12:09:51.241Z,1.50
2018-02-22T12:12:18.807Z,1.70
2018-02-22T12:14:46.400Z,1.50
2018-02-22T12:17:13.944Z,1.30
2018-02-22T12:19:41.550Z,1.50
2018-02-22T12:22:09.125Z,1.50
2018-02-22T12:24:36.666Z,1.30
2018-02-22T12:27:04.203Z,1.60
2018-02-22T12:29:31.792Z,1.50
2018-02-22T12:31:59.348Z,1.90
2018-02-22T12:34:26.907Z,2.40
2018-02-22T12:36:55.217Z,1.40
2018-02-22T12:39:22.749Z,1.40
2018-02-22T12:41:51.048Z,1.40
2018-02-22T12:44:19.472Z,1.20
2018-02-22T12:46:47.016Z,1.10
2018-02-22T12:49:15.460Z,0.90
2018-02-22T12:51:43.021Z,0.90
2018-02-22T12:54:10.550Z,1.00
2018-02-22T12:56:38.886Z,1.40
2018-02-22T12:59:06.436Z,1.40
2018-02-22T13:01:33.976Z,1.00
2018-02-22T13:04:01.631Z,1.10
2018-02-22T13:06:29.949Z,2.20
2018-02-22T13:08:58.371Z,1.90
2018-02-22T13:11:25.963Z,1.90
2018-02-22T13:13:53.498Z,1.30
2018-02-22T13:16:21.084Z,1.50
2018-02-22T13:18:48.701Z,1.60
2018-02-22T13:21:17.270Z,2.30
2018-02-22T13:23:44.872Z,2.40
2018-02-22T13:26:12.471Z,2.40
2018-02-22T13:28:40.770Z,2.20
2018-02-22T13:31:08.324Z,2.20
2018-02-22T13:33:48.582Z,1.90
2018-02-22T13:36:16.127Z,1.80
2018-02-22T13:38:55.790Z,1.50
2018-02-22T13:41:23.342Z,1.40
2018-02-22T13:44:02.923Z,1.20
2018-02-22T13:46:30.480Z,0.80
2018-02-22T13:49:09.961Z,1.00
2018-02-22T13:51:37.493Z,1.00
2018-02-22T13:54:05.093Z,1.00
2018-02-22T13:56:44.571Z,0.90
2018-02-22T13:59:12.901Z,0.70
2018-02-22T14:01:52.229Z,0.70
2018-02-22T14:04:19.910Z,0.60
2018-02-22T14:06:47.387Z,0.50
2018-02-22T14:09:14.938Z,0.50
2018-02-22T14:11:43.216Z,0.60
2018-02-22T14:14:11.534Z,0.60
2018-02-22T14:16:40.180Z,0.70
2018-02-22T14:19:07.752Z,0.60
2018-02-22T14:21:36.821Z,0.70
2018-02-22T14:24:04.368Z,0.70
2018-02-22T14:26:32.700Z,0.50
2018-02-22T14:29:00.264Z,0.50
2018-02-22T14:31:27.768Z,0.50
2018-02-22T14:33:55.381Z,0.60
2018-02-22T14:36:22.937Z,0.50
2018-02-22T14:38:51.296Z,0.60
2018-02-22T14:41:18.785Z,0.60
2018-02-22T14:43:46.300Z,0.50
2018-02-22T14:46:13.798Z,0.40
2018-02-22T14:48:41.347Z,0.50
2018-02-22T14:51:08.893Z,0.50
2018-02-22T14:53:37.595Z,0.60
2018-02-22T14:56:05.222Z,0.50
2018-02-22T14:58:32.840Z,0.60
2018-02-22T15:01:07.504Z,0.70
2018-02-22T15:03:35.086Z,1.40
2018-02-22T15:06:02.669Z,0.60
2018-02-22T15:08:30.208Z,0.40
2018-02-22T15:10:57.825Z,0.50
2018-02-22T15:13:25.377Z,0.50
2018-02-22T15:15:52.930Z,0.50
2018-02-22T15:18:20.551Z,0.50
2018-02-22T15:20:48.135Z,0.50
2018-02-22T15:23:15.717Z,0.50
2018-02-22T15:25:44.022Z,0.40
2018-02-22T15:28:12.362Z,0.50
2018-02-22T15:30:39.942Z,0.40
2018-02-22T15:33:07.543Z,0.40
2018-02-22T15:35:36.278Z,0.50
2018-02-22T15:38:03.827Z,0.50
2018-02-22T15:40:31.422Z,0.50
2018-02-22T15:42:59.054Z,0.50
2018-02-22T15:45:27.332Z,0.50
2018-02-22T15:47:54.897Z,0.50
2018-02-22T15:50:22.552Z,0.50
2018-02-22T15:52:50.216Z,0.50
2018-02-22T15:55:17.761Z,0.50
2018-02-22T15:57:45.339Z,0.50
2018-02-22T16:00:12.930Z,0.50
2018-02-22T16:02:40.451Z,0.50
2018-02-22T16:05:08.821Z,0.50
2018-02-22T16:07:37.594Z,0.50
2018-02-22T16:10:05.151Z,0.50
2018-02-22T16:12:32.723Z,0.50
2018-02-22T16:15:00.629Z,0.50
2018-02-22T16:17:28.146Z,0.50
2018-02-22T16:19:55.707Z,0.60
2018-02-22T16:22:24.078Z,0.60
2018-02-22T16:24:51.624Z,0.60
2018-02-22T16:27:19.142Z,0.60
2018-02-22T16:29:47.489Z,0.60
2018-02-22T16:32:15.061Z,0.60
2018-02-22T16:34:42.592Z,0.60
2018-02-22T16:37:10.120Z,0.60
2018-02-22T16:39:37.677Z,0.60
2018-02-22T16:42:05.197Z,0.50
2018-02-22T16:44:33.543Z,0.50
2018-02-22T16:47:01.209Z,0.50
2018-02-22T16:49:28.892Z,0.50
2018-02-22T16:51:56.404Z,0.50
2018-02-22T16:54:25.155Z,0.40
2018-02-22T16:56:52.749Z,0.50
2018-02-22T16:59:20.264Z,0.40
2018-02-22T17:01:47.809Z,0.40
2018-02-22T17:04:15.335Z,0.40
2018-02-22T17:06:42.932Z,0.40
2018-02-22T17:09:10.498Z,0.40
2018-02-22T17:11:38.129Z,0.40
2018-02-22T17:14:05.664Z,0.30
2018-02-22T17:16:33.244Z,0.30
2018-02-22T17:19:01.537Z,0.30
2018-02-22T17:21:29.335Z,0.30
2018-02-22T17:23:56.916Z,0.30
2018-02-22T17:26:30.268Z,0.30
2018-02-22T17:29:03.522Z,0.30
2018-02-22T17:31:37.537Z,0.30
2018-02-22T17:34:05.864Z,0.30
2018-02-22T17:36:34.020Z,0.30
2018-02-22T17:39:06.026Z,0.30
2018-02-22T17:41:37.027Z,0.30
2018-02-22T17:44:05.347Z,0.30
2018-02-22T17:46:32.905Z,0.30
2018-02-22T17:49:01.195Z,0.30
2018-02-22T17:51:29.477Z,0.30
2018-02-22T17:53:57.785Z,0.30
2018-02-22T17:56:25.345Z,0.20
2018-02-22T17:58:53.745Z,0.30
2018-02-22T18:01:21.304Z,0.20
2018-02-22T18:03:48.836Z,0.20
2018-02-22T18:06:16.401Z,0.30
2018-02-22T18:08:43.921Z,0.30
2018-02-22T18:11:11.510Z,0.20
2018-02-22T18:13:39.037Z,0.20
2018-02-22T18:16:06.605Z,0.30
2018-02-22T18:18:34.395Z,0.20
2018-02-22T18:21:01.939Z,0.20
2018-02-22T18:23:29.476Z,0.20
2018-02-22T18:25:57.005Z,0.20
2018-02-22T18:28:24.640Z,0.20
2018-02-22T18:30:52.229Z,0.10
2018-02-22T18:33:19.824Z,0.10
2018-02-22T18:35:47.397Z,0.20
2018-02-22T18:38:15.680Z,0.20
2018-02-22T18:40:49.348Z,0.20
2018-02-22T18:43:22.655Z,0.20
2018-02-22T18:45:50.188Z,0.20
2018-02-22T18:48:18.496Z,0.20
2018-02-22T18:50:46.801Z,0.20
2018-02-22T18:53:14.380Z,0.20
2018-02-22T18:55:41.982Z,0.20
2018-02-22T18:58:09.535Z,0.20
2018-02-22T19:00:37.034Z,0.20
2018-02-22T19:03:04.652Z,0.10
2018-02-22T19:05:32.572Z,0.10
2018-02-22T19:08:00.425Z,0.10
2018-02-22T19:10:28.202Z,0.10
2018-02-22T19:12:56.038Z,0.10
2018-02-22T19:15:24.403Z,0.10
2018-02-22T19:17:51.991Z,0.10
2018-02-22T19:20:19.579Z,0.10
2018-02-22T19:22:47.106Z,0.10
2018-02-22T19:25:14.676Z,0.10
2018-02-22T19:27:42.276Z,0.10
2018-02-22T19:30:09.805Z,0.10
2018-02-22T19:32:37.324Z,0.10
2018-02-22T19:35:04.848Z,0.10
2018-02-22T19:37:32.430Z,0.10
2018-02-22T19:39:59.953Z,0.10
2018-02-22T19:42:28.293Z,0.00
2018-02-22T19:44:55.827Z,0.10
2018-02-22T19:47:24.116Z,0.00
2018-02-22T19:49:52.408Z,0.00
2018-02-22T19:52:20.002Z,0.00
2018-02-22T19:54:47.526Z,0.00
2018-02-22T19:57:15.102Z,0.00
2018-02-22T19:59:42.611Z,0.00
2018-02-22T20:02:10.256Z,0.00
2018-02-22T20:04:38.602Z,0.00
2018-02-22T20:07:06.189Z,-0.10
2018-02-22T20:09:33.705Z,-0.10
2018-02-22T20:12:02.038Z,-0.10
2018-02-22T20:14:29.592Z,-0.10
2018-02-22T20:16:57.147Z,-0.10
2018-02-22T20:19:24.761Z,-0.10
2018-02-22T20:21:52.331Z,-0.10
2018-02-22T20:24:19.926Z,-0.10
2018-02-22T20:26:47.524Z,-0.10
2018-02-22T20:29:15.236Z,-0.10
2018-02-22T20:31:42.821Z,-0.10
2018-02-22T20:34:10.333Z,-0.10
2018-02-22T20:36:38.651Z,-0.10
2018-02-22T20:39:06.232Z,-0.20
2018-02-22T20:41:33.910Z,-0.10
2018-02-22T20:44:01.443Z,-0.20
2018-02-22T20:46:29.778Z,-0.10
2018-02-22T20:48:57.377Z,-0.10
2018-02-22T20:51:25.626Z,-0.20
2018-02-22T20:53:53.165Z,-0.10
2018-02-22T20:56:21.496Z,-0.10
2018-02-22T20:58:49.068Z,-0.10
2018-02-22T21:01:16.656Z,-0.10
2018-02-22T21:03:44.210Z,-0.20
2018-02-22T21:06:11.798Z,-0.20
2018-02-22T21:08:39.329Z,-0.20
2018-02-22T21:11:06.889Z,-0.30
2018-02-22T21:13:34.460Z,-0.20
2018-02-22T21:16:01.975Z,-0.20
2018-02-22T21:18:29.516Z,-0.20
2018-02-22T21:20:57.802Z,-0.30
2018-02-22T21:23:26.091Z,-0.30
2018-02-22T21:25:54.373Z,-0.30
2018-02-22T21:28:22.064Z,-0.30
2018-02-22T21:30:50.441Z,-0.30
2018-02-22T21:33:18.738Z,-0.30
2018-02-22T21:35:47.040Z,-0.30
2018-02-22T21:38:14.633Z,-0.30
2018-02-22T21:40:42.188Z,-0.30
2018-02-22T21:43:10.519Z,-0.50
2018-02-22T21:45:38.084Z,-0.50
2018-02-22T21:48:05.751Z,-0.50
2018-02-22T21:50:33.347Z,-0.50
2018-02-22T21:53:00.912Z,-0.50
2018-02-22T21:55:28.510Z,-0.50
2018-02-22T21:57:56.072Z,-0.50
2018-02-22T22:00:23.628Z,-0.50
2018-02-22T22:02:53.400Z,-0.60
2018-02-22T22:05:20.922Z,-0.60
2018-02-22T22:07:48.654Z,-0.60
2018-02-22T22:10:16.190Z,-0.60
2018-02-22T22:12:43.736Z,-0.60
2018-02-22T22:15:11.292Z,-0.60
2018-02-22T22:17:38.949Z,-0.60
2018-02-22T22:20:06.530Z,-0.60
2018-02-22T22:22:34.052Z,-0.70
2018-02-22T22:25:01.579Z,-0.70
2018-02-22T22:27:29.280Z,-0.70
2018-02-22T22:29:56.828Z,-0.70
2018-02-22T22:32:24.366Z,-0.70
2018-02-22T22:34:51.925Z,-0.70
2018-02-22T22:37:20.265Z,-0.70
2018-02-22T22:39:47.835Z,-0.70
2018-02-22T22:42:15.348Z,-0.70
2018-02-22T22:44:42.917Z,-0.80
2018-02-22T22:47:10.559Z,-0.70
2018-02-22T22:49:38.088Z,-0.80
2018-02-22T22:52:06.419Z,-0.80
2018-02-22T22:54:34.052Z,-0.80
2018-02-22T22:57:02.379Z,-0.80
2018-02-22T22:59:29.924Z,-0.90
2018-02-22T23:01:57.497Z,-0.80
2018-02-22T23:04:25.057Z,-0.90
2018-02-22T23:06:53.571Z,-0.90
2018-02-22T23:09:21.215Z,-0.90
2018-02-22T23:11:49.605Z,-0.90
2018-02-22T23:14:17.400Z,-0.90
2018-02-22T23:16:44.937Z,-0.90
2018-02-22T23:19:12.491Z,-0.90
2018-02-22T23:21:40.138Z,-0.90
2018-02-22T23:24:07.693Z,-0.90
2018-02-22T23:26:35.240Z,-1.00
2018-02-22T23:29:02.983Z,-1.00
2018-02-22T23:31:30.522Z,-1.00
2018-02-22T23:33:58.202Z,-1.00
2018-02-22T23:36:25.806Z,-1.00
2018-02-22T23:38:53.359Z,-1.10
2018-02-22T23:41:26.730Z,-1.10
2018-02-22T23:43:55.144Z,-1.10
2018-02-22T23:46:22.698Z,-1.10
2018-02-22T23:48:51.092Z,-1.10
2018-02-22T23:51:18.721Z,-1.10
2018-02-22T23:53:46.362Z,-1.10
2018-02-22T23:56:13.960Z,-1.10
2018-02-22T23:58:41.607Z,-1.10
